Time;durP1;ratioP1;P1;durP2;ratioP2;P2;SDS_P1;SDS_P2;PMS_P1;PMS_P2;Temp;Humidity;BMP_temperature;BMP_pressure;BME280_temperature;BME280_humidity;BME280_pressure;Samples;Min_cycle;Max_cycle;Signal;HPM_P1;HPM_P2
2021/06/29 00:01:58;;;;;;;12.02;3.55;;;;;;;22.10;56.58;97668.44;5049642;28;20036;-74
2021/06/29 00:04:23;;;;;;;3.38;3.08;;;;;;;22.12;56.77;97671.66;5049829;28;20018;-74
2021/06/29 00:06:49;;;;;;;7.38;4.10;;;;;;;21.96;57.17;97669.03;5049954;28;20025;-74
2021/06/29 00:09:15;;;;;;;7.70;3.30;;;;;;;21.98;57.29;97660.31;5031925;28;20037;-74
2021/06/29 00:11:41;;;;;;;6.95;3.03;;;;;;;21.83;57.61;97662.09;5049124;28;20014;-75
2021/06/29 00:14:07;;;;;;;4.15;3.33;;;;;;;21.86;57.89;97652.97;5048734;28;20055;-74
2021/06/29 00:16:32;;;;;;;4.63;3.13;;;;;;;21.83;58.09;97654.50;5049949;28;20033;-75
2021/06/29 00:18:58;;;;;;;7.75;4.05;;;;;;;21.77;59.09;97660.81;5052889;28;20021;-74
2021/06/29 00:21:23;;;;;;;6.90;2.88;;;;;;;21.67;59.71;97655.88;5052165;28;20021;-75
2021/06/29 00:23:48;;;;;;;6.80;3.05;;;;;;;21.74;59.59;97661.56;5053489;28;20108;-74
2021/06/29 00:26:14;;;;;;;8.82;3.33;;;;;;;21.69;59.84;97654.31;5054994;28;20107;-76
2021/06/29 00:28:40;;;;;;;7.80;3.17;;;;;;;21.40;60.48;97651.47;5054459;28;20037;-74
2021/06/29 00:31:05;;;;;;;7.82;4.28;;;;;;;21.31;60.98;97657.28;5053339;28;20017;-74
2021/06/29 00:33:31;;;;;;;3.83;2.90;;;;;;;21.41;60.47;97653.88;5053558;28;20025;-75
2021/06/29 00:35:57;;;;;;;4.35;3.45;;;;;;;21.33;60.31;97647.38;5053229;28;20104;-74
2021/06/29 00:38:23;;;;;;;5.65;3.53;;;;;;;21.26;60.58;97640.91;5053361;28;20021;-74
2021/06/29 00:40:50;;;;;;;3.72;3.30;;;;;;;21.08;61.22;97640.56;5053604;28;20021;-74
2021/06/29 00:43:15;;;;;;;5.65;2.63;;;;;;;21.40;60.07;97643.09;5053132;28;20401;-75
2021/06/29 00:45:41;;;;;;;3.58;3.08;;;;;;;21.22;60.65;97634.47;5052927;28;20041;-74
2021/06/29 00:48:07;;;;;;;4.75;3.10;;;;;;;21.11;60.65;97639.84;5052852;28;20604;-75
2021/06/29 00:50:32;;;;;;;8.32;2.60;;;;;;;20.99;61.24;97639.25;5053156;28;20033;-75
2021/06/29 00:52:57;;;;;;;7.65;2.58;;;;;;;20.92;61.84;97637.13;5052988;28;20056;-75
2021/06/29 00:55:23;;;;;;;7.53;2.58;;;;;;;21.07;61.35;97638.19;5053067;28;20477;-75
2021/06/29 00:57:51;;;;;;;7.80;3.47;;;;;;;20.90;61.79;97645.03;5053309;28;20079;-74
2021/06/29 01:00:17;;;;;;;3.63;3.13;;;;;;;20.78;62.20;97639.66;5052987;28;20014;-75
2021/06/29 01:02:43;;;;;;;7.15;3.97;;;;;;;20.76;62.60;97637.25;5052950;28;20029;-74
2021/06/29 01:05:10;;;;;;;8.50;2.53;;;;;;;20.86;62.10;97633.06;5052492;28;20025;-75
2021/06/29 01:07:35;;;;;;;9.07;2.55;;;;;;;20.69;62.83;97634.34;5034636;28;20049;-76
2021/06/29 01:10:06;;;;;;;3.83;2.75;;;;;;;20.52;63.06;97629.25;5052581;28;20061;-74
2021/06/29 01:12:32;;;;;;;3.95;2.50;;;;;;;20.68;62.63;97637.47;5052578;28;20021;-74
2021/06/29 01:14:57;;;;;;;7.78;2.50;;;;;;;20.54;62.61;97638.03;5052405;28;20028;-74
2021/06/29 01:17:24;;;;;;;4.75;2.75;;;;;;;20.36;63.38;97633.31;5052539;28;20120;-75
2021/06/29 01:19:51;;;;;;;7.57;2.97;;;;;;;20.33;63.47;97629.25;5052641;28;20133;-74
2021/06/29 01:22:18;;;;;;;3.63;2.67;;;;;;;20.42;62.64;97626.28;5034636;28;20043;-74
2021/06/29 01:24:48;;;;;;;6.10;2.80;;;;;;;20.54;62.51;97631.66;5052399;28;20061;-74
2021/06/29 01:27:41;;;;;;;3.70;2.10;;;;;;;20.54;62.16;97628.88;5056949;28;20033;-72
2021/06/29 01:32:27;;;;;;;3.45;1.83;;;;;;;20.09;64.16;97624.78;5052181;28;20040;-74
2021/06/29 01:34:53;;;;;;;4.82;2.80;;;;;;;19.98;64.41;97632.09;5052019;28;20048;-75
2021/06/29 01:37:19;;;;;;;7.10;2.13;;;;;;;19.89;64.94;97628.72;5052406;28;20477;-74
2021/06/29 01:42:30;;;;;;;2.80;2.22;;;;;;;19.85;65.24;97627.03;5051732;28;20036;-74
2021/06/29 01:44:55;;;;;;;3.03;2.20;;;;;;;19.80;65.36;97616.25;5051893;28;20052;-73
2021/06/29 01:47:27;;;;;;;11.20;4.00;;;;;;;19.74;65.64;97610.97;5051367;28;20493;-73
2021/06/29 01:49:53;;;;;;;6.45;2.70;;;;;;;19.61;66.26;97617.00;5051790;28;20469;-74
2021/06/29 01:52:19;;;;;;;3.38;2.60;;;;;;;19.70;66.01;97612.84;5051905;28;20033;-74
2021/06/29 01:54:44;;;;;;;4.32;2.65;;;;;;;19.73;65.99;97614.13;5051575;28;20494;-73
2021/06/29 01:57:15;;;;;;;4.20;2.58;;;;;;;19.97;65.04;97613.81;5051596;28;20051;-74
2021/06/29 01:59:44;;;;;;;2.50;2.30;;;;;;;20.01;64.53;97620.28;5051691;28;20035;-74
2021/06/29 02:02:10;;;;;;;5.05;2.25;;;;;;;20.08;63.94;97617.63;5052021;28;20119;-73
2021/06/29 02:04:35;;;;;;;4.88;2.95;;;;;;;20.17;63.61;97612.66;5052003;28;20466;-75
2021/06/29 02:07:00;;;;;;;4.22;2.00;;;;;;;20.13;63.32;97609.00;5051856;28;20446;-74
2021/06/29 02:09:26;;;;;;;4.55;1.98;;;;;;;20.15;63.04;97603.88;5051660;28;20036;-75
2021/06/29 02:11:51;;;;;;;7.85;2.05;;;;;;;20.12;62.92;97609.38;5052120;28;20032;-74
2021/06/29 02:14:17;;;;;;;1.80;1.65;;;;;;;20.24;62.57;97610.00;5051488;28;20025;-75
2021/06/29 02:16:42;;;;;;;2.30;2.10;;;;;;;20.20;62.33;97608.34;5051217;28;20025;-75
2021/06/29 02:19:09;;;;;;;4.35;1.90;;;;;;;20.11;62.14;97605.78;5051188;28;20029;-74
2021/06/29 02:21:35;;;;;;;2.53;2.05;;;;;;;19.99;62.29;97610.66;5033445;28;20754;-74
2021/06/29 02:24:00;;;;;;;3.05;1.92;;;;;;;19.97;62.55;97616.59;5050958;28;20028;-74
2021/06/29 02:26:26;;;;;;;10.68;1.63;;;;;;;20.06;61.76;97605.28;5050950;28;20103;-74
2021/06/29 02:28:51;;;;;;;7.40;1.98;;;;;;;19.84;62.71;97604.03;5050959;28;20457;-74
2021/06/29 02:31:17;;;;;;;4.28;1.90;;;;;;;19.72;63.08;97604.16;5051061;28;20029;-74
2021/06/29 02:33:42;;;;;;;4.82;2.40;;;;;;;19.67;63.71;97610.00;5050651;28;20027;-74
2021/06/29 02:36:08;;;;;;;8.35;2.70;;;;;;;19.64;63.57;97605.19;5032779;28;20033;-74
2021/06/29 02:38:33;;;;;;;3.65;2.05;;;;;;;19.55;63.63;97601.78;5050337;28;20032;-73
2021/06/29 02:40:58;;;;;;;3.47;2.20;;;;;;;19.58;63.77;97603.84;5049914;28;20013;-73
2021/06/29 02:43:24;;;;;;;5.63;2.30;;;;;;;19.47;63.96;97600.03;5050325;28;20028;-73
2021/06/29 02:45:49;;;;;;;4.50;2.70;;;;;;;19.49;64.17;97603.25;5050263;28;20072;-73
2021/06/29 02:48:15;;;;;;;3.17;2.42;;;;;;;19.88;62.79;97604.91;5050669;28;20099;-73
2021/06/29 02:50:40;;;;;;;4.53;2.33;;;;;;;20.07;61.85;97607.69;5032836;28;20029;-75
2021/06/29 02:53:06;;;;;;;2.92;1.85;;;;;;;19.86;62.29;97600.91;5032832;28;20039;-73
2021/06/29 02:55:31;;;;;;;5.13;2.20;;;;;;;19.81;62.47;97610.31;5050405;28;20036;-73
2021/06/29 02:57:57;;;;;;;3.47;2.33;;;;;;;19.82;62.33;97611.13;5050520;28;20392;-74
2021/06/29 03:00:22;;;;;;;5.00;3.38;;;;;;;19.91;62.04;97603.38;5050461;28;20025;-73
2021/06/29 03:02:48;;;;;;;3.88;2.05;;;;;;;19.83;62.05;97607.19;5050740;28;20028;-74
2021/06/29 03:05:15;;;;;;;2.30;1.80;;;;;;;19.81;62.18;97604.75;5050412;28;20025;-75
2021/06/29 03:07:42;;;;;;;5.10;1.80;;;;;;;19.67;62.85;97590.59;5050507;28;20504;-75
2021/06/29 03:10:09;;;;;;;3.47;1.95;;;;;;;19.59;63.13;97602.69;5050425;28;20029;-74
2021/06/29 03:12:35;;;;;;;2.55;2.25;;;;;;;19.60;63.29;97596.78;5050521;28;20516;-75
2021/06/29 03:15:01;;;;;;;4.75;2.65;;;;;;;19.73;63.28;97605.78;5050517;28;20112;-73
2021/06/29 03:17:28;;;;;;;4.82;1.98;;;;;;;19.82;62.82;97608.34;5050212;28;20025;-73
2021/06/29 03:19:54;;;;;;;3.75;2.40;;;;;;;19.80;62.89;97603.13;5050382;28;20488;-74
2021/06/29 03:22:21;;;;;;;3.63;2.45;;;;;;;19.67;63.21;97607.25;5050377;28;20025;-73
2021/06/29 03:24:47;;;;;;;6.28;2.60;;;;;;;19.89;62.73;97611.28;5050311;28;20029;-75
2021/06/29 03:27:12;;;;;;;5.00;2.50;;;;;;;19.70;63.17;97615.63;5050342;28;20029;-75
2021/06/29 03:29:38;;;;;;;4.90;2.40;;;;;;;19.83;62.90;97612.75;5050370;28;20035;-73
2021/06/29 03:32:05;;;;;;;3.22;2.80;;;;;;;19.88;62.63;97601.34;5050145;28;20029;-73
2021/06/29 03:34:31;;;;;;;3.85;3.13;;;;;;;19.66;63.06;97605.63;5050326;28;20033;-75
2021/06/29 03:36:56;;;;;;;2.20;1.80;;;;;;;19.66;62.62;97608.41;5050087;28;20025;-74
2021/06/29 03:39:22;;;;;;;3.45;1.90;;;;;;;19.67;62.54;97608.03;5050189;28;20029;-74
2021/06/29 03:41:47;;;;;;;2.47;1.90;;;;;;;19.81;62.08;97604.75;5050237;28;20112;-73
2021/06/29 03:44:13;;;;;;;4.30;1.88;;;;;;;19.83;61.97;97609.97;5050514;28;20461;-74
2021/06/29 03:46:39;;;;;;;9.48;3.25;;;;;;;20.01;61.33;97611.13;5050256;28;20522;-74
2021/06/29 03:49:04;;;;;;;6.95;3.05;;;;;;;20.12;61.01;97615.72;5051054;28;20033;-75
2021/06/29 03:51:29;;;;;;;3.88;2.08;;;;;;;20.29;60.21;97623.66;5051571;28;20033;-74
2021/06/29 03:53:55;;;;;;;3.70;2.42;;;;;;;20.41;59.83;97616.31;5054536;28;20477;-75
2021/06/29 03:56:24;;;;;;;2.88;1.98;;;;;;;20.46;59.87;97613.22;5053954;28;20477;-74
2021/06/29 03:59:10;;;;;;;5.63;2.22;;;;;;;21.01;57.88;97617.41;5046112;28;20032;-74
2021/06/29 04:01:36;;;;;;;2.60;2.03;;;;;;;20.97;58.19;97617.34;5053182;28;20036;-74
2021/06/29 04:04:03;;;;;;;3.03;1.67;;;;;;;21.16;57.57;97613.72;5053691;28;20470;-74
2021/06/29 04:06:30;;;;;;;2.97;1.77;;;;;;;21.38;57.24;97623.19;5053873;28;20115;-74
2021/06/29 04:08:57;;;;;;;9.25;2.42;;;;;;;21.52;56.80;97620.66;5053719;28;20462;-74
2021/06/29 04:11:24;;;;;;;5.60;2.15;;;;;;;21.75;56.61;97621.38;5053715;28;20036;-75
2021/06/29 04:13:50;;;;;;;2.70;2.00;;;;;;;21.47;58.06;97615.38;5053718;28;20017;-74
2021/06/29 04:16:16;;;;;;;3.15;2.30;;;;;;;21.56;58.36;97621.47;5053758;28;20111;-74
2021/06/29 04:18:42;;;;;;;5.82;2.30;;;;;;;21.80;57.73;97621.84;5053874;28;20024;-74
2021/06/29 04:21:08;;;;;;;4.47;2.45;;;;;;;22.11;56.94;97626.28;5054096;28;20086;-74
2021/06/29 04:23:34;;;;;;;5.60;2.63;;;;;;;21.96;57.73;97624.47;5053945;28;20020;-74
2021/06/29 04:25:59;;;;;;;3.00;2.03;;;;;;;21.96;57.47;97616.13;5053666;28;20510;-74
2021/06/29 04:28:25;;;;;;;3.08;1.95;;;;;;;22.18;56.69;97619.97;5053957;28;20106;-75
2021/06/29 04:30:50;;;;;;;2.20;1.85;;;;;;;22.46;55.71;97631.47;5053626;28;20040;-74
2021/06/29 04:33:15;;;;;;;4.47;2.42;;;;;;;22.57;55.10;97629.59;5054662;28;20059;-73
2021/06/29 04:35:41;;;;;;;3.15;1.90;;;;;;;22.34;55.76;97624.16;5035745;28;20465;-72
2021/06/29 04:38:06;;;;;;;5.55;2.15;;;;;;;22.26;55.86;97621.69;5053210;28;20036;-73
2021/06/29 04:40:32;;;;;;;2.70;1.85;;;;;;;22.02;56.86;97622.19;5053408;28;20033;-74
2021/06/29 04:42:57;;;;;;;9.10;2.25;;;;;;;21.90;57.22;97630.78;5053197;28;20021;-74
2021/06/29 04:45:26;;;;;;;2.20;1.60;;;;;;;22.11;56.21;97628.25;5052960;28;20029;-73
2021/06/29 04:47:53;;;;;;;12.93;3.08;;;;;;;21.85;56.74;97624.31;5052948;28;20052;-74
2021/06/29 04:50:19;;;;;;;2.72;1.98;;;;;;;21.86;56.51;97616.75;5053265;28;20065;-73
2021/06/29 04:52:45;;;;;;;3.92;2.50;;;;;;;22.16;55.72;97617.56;5053200;28;20045;-74
2021/06/29 04:55:11;;;;;;;2.65;2.20;;;;;;;22.58;55.08;97616.47;5035052;28;20461;-72
2021/06/29 04:57:37;;;;;;;6.47;2.88;;;;;;;22.72;54.86;97616.63;5052957;28;20532;-73
2021/06/29 05:00:10;;;;;;;4.63;3.03;;;;;;;22.80;54.11;97621.91;5052564;28;20056;-75
2021/06/29 05:02:37;;;;;;;6.10;2.58;;;;;;;22.65;54.44;97613.72;5052318;28;20036;-74
2021/06/29 05:05:04;;;;;;;10.10;2.83;;;;;;;22.57;54.57;97623.22;5053417;28;20398;-75
2021/06/29 05:07:29;;;;;;;3.08;2.53;;;;;;;22.60;54.20;97619.66;5053165;28;20028;-73
2021/06/29 05:09:54;;;;;;;5.78;2.55;;;;;;;22.72;54.57;97616.63;5035067;28;20029;-74
2021/06/29 05:12:20;;;;;;;9.77;2.47;;;;;;;22.48;55.46;97617.16;5052815;28;20090;-77
2021/06/29 05:14:45;;;;;;;6.60;2.72;;;;;;;22.71;55.85;97615.03;5052836;28;20191;-74
2021/06/29 05:17:11;;;;;;;3.95;2.85;;;;;;;22.88;55.06;97609.63;5052807;28;20070;-74
2021/06/29 05:19:38;;;;;;;16.40;2.90;;;;;;;22.72;55.59;97616.63;5053015;28;20041;-75
2021/06/29 05:22:04;;;;;;;9.65;3.13;;;;;;;22.76;55.70;97606.31;5052628;28;20075;-75
2021/06/29 05:24:29;;;;;;;7.25;3.15;;;;;;;22.90;55.32;97612.03;5052576;28;20489;-74
2021/06/29 05:26:54;;;;;;;6.95;3.58;;;;;;;22.67;55.81;97609.44;5052627;28;20041;-73
2021/06/29 05:29:20;;;;;;;7.50;2.78;;;;;;;22.63;55.90;97614.13;5052760;28;20037;-76
2021/06/29 05:31:45;;;;;;;8.20;2.88;;;;;;;22.29;57.14;97605.00;5051821;28;20029;-73
2021/06/29 05:34:11;;;;;;;9.88;3.53;;;;;;;22.50;56.69;97611.97;5052335;28;20131;-74
2021/06/29 05:36:36;;;;;;;8.95;3.83;;;;;;;22.38;56.51;97625.00;5034803;28;20039;-76
2021/06/29 05:39:04;;;;;;;9.05;2.60;;;;;;;22.68;56.14;97616.59;5052550;28;20033;-74
2021/06/29 05:41:29;;;;;;;16.00;3.38;;;;;;;22.78;55.78;97631.84;5034124;28;20508;-74
2021/06/29 05:43:55;;;;;;;4.45;3.00;;;;;;;23.01;55.34;97623.28;5034432;28;20053;-76
2021/06/29 05:46:20;;;;;;;7.10;3.17;;;;;;;23.03;55.36;97620.91;5052223;28;20045;-74
2021/06/29 05:48:46;;;;;;;4.78;3.38;;;;;;;22.94;55.16;97615.66;5052233;28;20115;-73
2021/06/29 05:51:11;;;;;;;6.72;2.95;;;;;;;23.06;54.63;97620.94;5052215;28;20871;-73
2021/06/29 05:53:37;;;;;;;13.52;3.72;;;;;;;23.21;54.16;97625.44;5051854;28;20432;-74
2021/06/29 05:56:02;;;;;;;6.63;3.50;;;;;;;23.14;54.05;97627.41;5052208;28;20366;-74
2021/06/29 05:58:28;;;;;;;7.78;3.17;;;;;;;23.57;52.87;97634.13;5052235;28;20554;-74
2021/06/29 06:00:53;;;;;;;7.55;2.75;;;;;;;23.36;53.15;97634.75;5051768;28;20040;-74
2021/06/29 06:03:20;;;;;;;4.85;2.83;;;;;;;23.75;51.96;97635.06;5051682;28;20029;-74
2021/06/29 06:05:45;;;;;;;5.40;3.17;;;;;;;23.33;53.02;97636.34;5033877;28;20385;-74
2021/06/29 06:08:11;;;;;;;6.38;2.97;;;;;;;23.40;52.87;97639.19;5051715;28;20037;-74
2021/06/29 06:10:36;;;;;;;5.60;3.33;;;;;;;23.24;53.10;97635.84;5051439;28;20025;-76
2021/06/29 06:13:21;;;;;;;4.95;3.72;;;;;;;23.76;52.22;97639.47;5051748;28;20052;-76
2021/06/29 06:15:47;;;;;;;3.85;2.38;;;;;;;24.06;50.96;97645.59;5050800;28;20120;-74
2021/06/29 06:18:12;;;;;;;14.10;3.40;;;;;;;24.22;50.66;97648.91;5051411;28;20024;-75
2021/06/29 06:20:38;;;;;;;3.50;2.83;;;;;;;24.41;50.25;97651.41;5051457;28;20488;-74
2021/06/29 06:23:04;;;;;;;10.13;3.28;;;;;;;23.88;51.46;97644.72;5051444;28;20037;-74
2021/06/29 06:25:31;;;;;;;5.03;2.50;;;;;;;23.87;51.27;97643.13;5051338;28;20025;-74
2021/06/29 06:27:56;;;;;;;7.28;2.95;;;;;;;23.99;50.73;97649.16;5051466;28;20067;-75
2021/06/29 06:30:23;;;;;;;4.57;3.05;;;;;;;23.93;50.91;97647.16;5050997;28;20071;-74
2021/06/29 06:32:49;;;;;;;4.55;2.70;;;;;;;24.20;50.53;97645.72;5049444;28;20021;-75
2021/06/29 06:35:17;;;;;;;4.25;2.40;;;;;;;24.85;49.02;97641.97;5047048;28;20029;-74
2021/06/29 06:37:43;;;;;;;3.00;2.70;;;;;;;24.96;48.27;97642.81;5050205;28;20037;-74
2021/06/29 06:40:10;;;;;;;8.75;3.22;;;;;;;25.14;47.50;97640.00;5031973;28;20032;-74
2021/06/29 06:42:35;;;;;;;5.90;2.83;;;;;;;25.34;46.58;97641.25;5050088;28;20473;-74
2021/06/29 06:45:02;;;;;;;11.93;3.38;;;;;;;25.24;47.25;97642.84;5051530;28;20252;-74
2021/06/29 06:47:27;;;;;;;6.63;2.88;;;;;;;25.01;48.05;97634.81;5050911;28;20584;-75
2021/06/29 06:49:53;;;;;;;8.93;3.40;;;;;;;24.90;48.18;97638.78;5051196;28;20116;-75
2021/06/29 06:52:20;;;;;;;5.75;2.85;;;;;;;25.40;47.10;97632.03;5050626;28;20049;-74
2021/06/29 06:54:45;;;;;;;5.32;2.60;;;;;;;25.50;46.07;97631.22;5051173;28;20032;-76
2021/06/29 06:57:11;;;;;;;11.32;3.17;;;;;;;26.09;44.25;97634.34;5032739;28;20397;-76
2021/06/29 06:59:37;;;;;;;7.00;3.58;;;;;;;26.70;42.73;97635.69;5050928;28;20451;-75
2021/06/29 07:02:04;;;;;;;3.65;2.47;;;;;;;26.46;43.01;97634.63;5050923;28;20470;-75
2021/06/29 07:04:29;;;;;;;4.88;2.70;;;;;;;26.44;42.91;97637.03;5050708;28;20063;-75
2021/06/29 07:06:55;;;;;;;3.92;3.10;;;;;;;26.36;42.89;97635.47;5032583;28;20048;-75
2021/06/29 07:09:21;;;;;;;5.05;2.63;;;;;;;26.50;42.97;97637.44;5050613;28;20040;-75
2021/06/29 07:11:47;;;;;;;9.65;3.05;;;;;;;26.32;42.84;97634.69;5051134;28;20040;-74
2021/06/29 07:14:13;;;;;;;6.45;2.70;;;;;;;26.28;42.92;97649.94;5050611;28;20028;-74
2021/06/29 07:16:38;;;;;;;3.83;2.60;;;;;;;26.49;42.53;97647.03;5050727;28;20025;-74
2021/06/29 07:19:04;;;;;;;8.13;2.63;;;;;;;26.74;42.31;97642.09;5050641;28;20055;-75
2021/06/29 07:21:30;;;;;;;9.18;3.67;;;;;;;27.06;41.68;97641.94;5050649;28;20064;-74
2021/06/29 07:23:59;;;;;;;10.63;3.10;;;;;;;27.07;41.45;97641.50;5049849;28;20048;-75
2021/06/29 07:26:25;;;;;;;6.85;2.85;;;;;;;26.86;41.55;97641.66;5051167;28;20487;-75
2021/06/29 07:28:50;;;;;;;4.93;2.70;;;;;;;26.76;42.58;97641.69;5048416;28;20029;-75
2021/06/29 07:31:17;;;;;;;6.25;3.20;;;;;;;26.73;41.98;97643.31;5054657;28;20029;-75
2021/06/29 07:33:45;;;;;;;5.50;2.30;;;;;;;26.97;41.81;97639.56;5054685;28;20374;-74
2021/06/29 07:36:12;;;;;;;11.55;2.47;;;;;;;27.36;40.74;97633.66;5054479;28;20035;-75
2021/06/29 07:38:37;;;;;;;8.65;2.38;;;;;;;27.44;40.44;97635.22;5054333;28;20021;-74
2021/06/29 07:41:03;;;;;;;4.93;2.92;;;;;;;27.36;40.41;97630.88;5053271;28;20113;-75
2021/06/29 07:43:28;;;;;;;8.88;3.28;;;;;;;27.29;40.52;97636.53;5052730;28;20039;-74
2021/06/29 07:45:54;;;;;;;9.68;1.98;;;;;;;27.27;40.47;97638.97;5052776;28;20559;-76
2021/06/29 07:48:19;;;;;;;6.47;3.10;;;;;;;27.30;40.26;97628.91;5034915;28;20040;-74
2021/06/29 07:50:44;;;;;;;5.03;2.67;;;;;;;27.86;39.54;97636.06;5051944;28;20025;-75
2021/06/29 07:53:10;;;;;;;4.38;2.20;;;;;;;28.38;38.63;97625.47;5034831;28;20052;-75
2021/06/29 07:55:35;;;;;;;6.50;2.17;;;;;;;28.76;37.63;97634.66;5052482;28;20037;-75
2021/06/29 07:58:01;;;;;;;12.63;2.60;;;;;;;28.61;38.15;97628.34;5052719;28;20082;-73
2021/06/29 08:00:26;;;;;;;3.83;2.47;;;;;;;28.61;38.12;97637.59;5044925;28;20370;-73
2021/06/29 08:02:52;;;;;;;11.40;3.10;;;;;;;29.14;36.98;97631.25;5025714;28;20033;-75
2021/06/29 08:05:17;;;;;;;6.15;1.88;;;;;;;30.40;34.51;97618.16;5041950;28;20452;-74
2021/06/29 08:07:43;;;;;;;4.15;1.90;;;;;;;31.89;32.66;97623.19;5042911;28;20093;-74
2021/06/29 08:10:10;;;;;;;3.22;1.75;;;;;;;32.01;32.20;97636.59;5023423;28;20135;-74
2021/06/29 08:12:35;;;;;;;7.78;2.38;;;;;;;32.72;30.94;97636.22;5042060;28;20047;-75
2021/06/29 08:15:01;;;;;;;5.47;2.60;;;;;;;31.96;32.36;97631.47;5043640;28;20037;-74
2021/06/29 08:17:28;;;;;;;6.35;2.47;;;;;;;31.53;32.79;97629.75;5049837;28;20055;-75
2021/06/29 08:19:53;;;;;;;3.63;2.10;;;;;;;30.93;34.16;97624.69;5052547;28;20025;-74
2021/06/29 08:22:21;;;;;;;6.53;2.05;;;;;;;30.94;34.67;97620.63;5052876;28;20040;-76
2021/06/29 08:24:47;;;;;;;8.15;2.63;;;;;;;30.59;35.74;97623.00;5048059;28;20436;-76
2021/06/29 08:27:14;;;;;;;2.88;1.90;;;;;;;30.83;35.47;97618.03;5052522;28;20021;-74
2021/06/29 08:29:44;;;;;;;8.40;1.90;;;;;;;32.22;32.60;97619.84;5052881;28;20033;-74
2021/06/29 08:32:11;;;;;;;3.33;2.03;;;;;;;32.40;32.64;97624.19;5052917;28;20033;-76
2021/06/29 08:34:36;;;;;;;4.85;1.80;;;;;;;32.26;32.09;97614.09;5052478;28;20035;-74
2021/06/29 08:37:03;;;;;;;2.58;1.40;;;;;;;32.95;30.99;97612.44;5052096;28;20103;-76
2021/06/29 08:39:28;;;;;;;8.63;1.58;;;;;;;33.87;29.91;97615.91;5052054;28;20124;-76
2021/06/29 08:41:54;;;;;;;5.25;1.83;;;;;;;34.03;29.00;97609.25;5034852;28;20115;-76
2021/06/29 08:44:20;;;;;;;7.55;1.63;;;;;;;34.93;28.06;97614.84;5052704;28;20028;-76
2021/06/29 08:46:46;;;;;;;3.40;1.80;;;;;;;34.66;27.94;97609.00;5034606;28;20045;-77
2021/06/29 08:49:14;;;;;;;7.95;2.05;;;;;;;35.13;27.28;97610.84;5051950;28;20320;-77
2021/06/29 08:51:40;;;;;;;5.47;1.35;;;;;;;37.02;25.00;97608.69;5034186;28;20032;-75
2021/06/29 08:54:06;;;;;;;6.10;1.90;;;;;;;37.57;23.91;97609.25;5051805;28;20032;-76
2021/06/29 08:56:32;;;;;;;4.78;1.40;;;;;;;35.08;26.80;97602.91;5051736;28;20104;-76
2021/06/29 08:58:59;;;;;;;5.38;1.85;;;;;;;34.47;27.16;97592.25;5052073;28;20037;-73
2021/06/29 09:01:28;;;;;;;3.67;1.30;;;;;;;36.35;25.18;97597.50;5049212;28;20045;-74
2021/06/29 09:03:55;;;;;;;2.83;1.40;;;;;;;38.07;23.12;97601.78;5052065;28;20397;-74
2021/06/29 09:06:31;;;;;;;4.93;1.40;;;;;;;38.36;22.07;97601.09;5051747;28;20385;-76
2021/06/29 09:08:56;;;;;;;7.85;1.65;;;;;;;38.77;21.89;97596.41;5051913;28;20033;-76
2021/06/29 09:11:22;;;;;;;7.15;1.33;;;;;;;38.40;21.73;97593.91;5051918;28;20428;-77
2021/06/29 09:14:07;;;;;;;3.25;1.17;;;;;;;38.13;21.61;97590.44;5051561;28;20388;-77
2021/06/29 09:16:32;;;;;;;8.20;1.40;;;;;;;39.21;19.38;97591.44;5050170;28;20025;-77
2021/06/29 09:18:58;;;;;;;3.08;0.93;;;;;;;39.57;18.64;97593.06;5049218;28;20363;-76
2021/06/29 09:21:24;;;;;;;4.43;1.20;;;;;;;40.89;16.92;97587.38;5049458;28;20021;-76
2021/06/29 09:23:50;;;;;;;3.47;0.88;;;;;;;39.21;18.24;97585.72;5049187;28;20454;-77
2021/06/29 09:26:19;;;;;;;2.05;1.00;;;;;;;38.78;18.96;97573.03;5038791;28;20405;-76
2021/06/29 09:28:55;;;;;;;3.17;1.00;;;;;;;38.40;19.55;97567.38;5042003;28;20036;-76
2021/06/29 09:31:23;;;;;;;4.30;1.20;;;;;;;39.94;18.38;97565.44;5049546;28;20017;-77
2021/06/29 09:33:53;;;;;;;4.28;1.20;;;;;;;39.94;17.58;97559.72;5050291;28;20021;-78
2021/06/29 09:36:23;;;;;;;4.45;1.33;;;;;;;40.12;17.35;97552.94;5050293;28;20021;-76
2021/06/29 09:38:51;;;;;;;2.17;0.80;;;;;;;40.96;17.12;97558.25;5050406;28;20112;-78
2021/06/29 09:41:23;;;;;;;3.08;1.08;;;;;;;41.88;16.00;97552.09;5050627;28;20025;-79
2021/06/29 09:43:55;;;;;;;8.70;1.10;;;;;;;41.16;16.47;97555.25;5049968;28;20493;-76
2021/06/29 09:46:23;;;;;;;0.80;0.80;;;;;;;39.95;17.86;97546.97;5047616;28;20041;-74
2021/06/29 09:48:53;;;;;;;2.08;1.10;;;;;;;38.86;18.83;97530.50;5050309;28;20485;-76
2021/06/29 09:51:19;;;;;;;2.42;0.85;;;;;;;38.72;18.97;97534.91;5050293;28;20028;-77
2021/06/29 09:53:47;;;;;;;3.03;1.20;;;;;;;39.12;18.55;97522.06;5051629;28;20021;-75
2021/06/29 09:56:16;;;;;;;3.58;1.25;;;;;;;39.48;18.10;97521.56;5031695;28;20025;-77
2021/06/29 09:58:45;;;;;;;3.35;1.27;;;;;;;38.63;19.25;97525.69;5047845;28;20041;-75
2021/06/29 10:01:15;;;;;;;5.15;1.20;;;;;;;39.33;18.99;97509.38;5049956;28;20377;-75
2021/06/29 10:03:41;;;;;;;3.97;1.23;;;;;;;38.67;19.44;97509.88;5047457;28;20024;-76
2021/06/29 10:06:18;;;;;;;5.20;1.20;;;;;;;39.61;18.99;97508.47;5049700;28;20104;-76
2021/06/29 10:08:51;;;;;;;4.97;1.88;;;;;;;39.34;18.11;97510.97;5047285;28;20056;-77
2021/06/29 10:11:23;;;;;;;4.90;1.45;;;;;;;39.56;18.42;97517.81;5048658;28;20044;-77
2021/06/29 10:13:52;;;;;;;1.52;1.10;;;;;;;39.38;18.24;97505.84;5049469;28;20484;-76
2021/06/29 10:16:21;;;;;;;5.32;1.05;;;;;;;40.17;17.37;97508.38;5041025;28;20033;-75
2021/06/29 10:18:53;;;;;;;4.60;0.93;;;;;;;39.29;17.47;97498.13;5022283;28;20473;-76
2021/06/29 10:21:22;;;;;;;1.48;0.95;;;;;;;39.12;18.00;97499.97;5040459;28;20021;-77
2021/06/29 10:23:50;;;;;;;8.60;1.58;;;;;;;38.93;18.39;97498.63;5039698;28;20048;-77
2021/06/29 10:26:17;;;;;;;4.45;1.00;;;;;;;39.03;18.24;97500.09;5040797;28;20025;-76
2021/06/29 10:28:44;;;;;;;1.33;1.00;;;;;;;38.19;19.33;97486.38;5040557;28;20028;-77
2021/06/29 10:31:16;;;;;;;4.82;1.20;;;;;;;37.56;20.57;97475.50;5048733;28;20029;-77
2021/06/29 10:33:42;;;;;;;1.65;1.15;;;;;;;37.49;20.84;97486.03;5051283;28;20049;-77
2021/06/29 10:36:09;;;;;;;7.70;1.40;;;;;;;36.38;22.46;97469.06;5032087;28;20812;-77
2021/06/29 10:38:34;;;;;;;2.28;1.25;;;;;;;35.96;23.60;97462.50;5050479;28;20033;-77
2021/06/29 10:41:01;;;;;;;4.65;1.73;;;;;;;34.88;24.60;97453.34;5050832;28;20044;-76
2021/06/29 10:43:27;;;;;;;4.68;1.48;;;;;;;34.97;24.52;97452.56;5050740;28;20025;-76
2021/06/29 10:45:53;;;;;;;3.13;1.30;;;;;;;35.11;23.93;97446.34;5050499;28;20061;-76
2021/06/29 10:48:26;;;;;;;1.77;1.40;;;;;;;35.14;24.02;97438.91;5050072;28;20116;-75
2021/06/29 10:50:56;;;;;;;2.20;1.15;;;;;;;34.79;25.03;97444.81;5050891;28;20547;-74
2021/06/29 10:53:43;;;;;;;3.10;1.38;;;;;;;35.09;24.78;97428.09;5051064;28;20456;-74
2021/06/29 10:56:16;;;;;;;4.13;1.05;;;;;;;35.53;24.28;97429.44;5050830;28;20032;-75
2021/06/29 10:58:48;;;;;;;1.83;1.20;;;;;;;35.11;25.20;97426.41;5050839;28;20025;-77
2021/06/29 11:01:22;;;;;;;10.60;1.90;;;;;;;34.54;25.94;97432.81;5050881;28;20451;-75
2021/06/29 11:03:53;;;;;;;4.03;1.80;;;;;;;34.46;25.96;97426.63;5051531;28;20039;-76
2021/06/29 11:06:43;;;;;;;4.18;1.83;;;;;;;34.38;26.38;97422.50;5032695;28;20021;-76
2021/06/29 11:09:17;;;;;;;3.97;1.92;;;;;;;34.25;26.50;97421.81;5050365;28;20040;-75
2021/06/29 11:12:22;;;;;;;9.30;1.65;;;;;;;33.76;26.89;97421.66;5051079;28;20047;-76
2021/06/29 11:14:49;;;;;;;11.32;2.60;;;;;;;34.67;26.30;97408.75;5050634;28;20025;-77
2021/06/29 11:17:16;;;;;;;13.40;5.68;;;;;;;34.93;25.84;97415.75;5050518;28;20017;-77
2021/06/29 11:20:00;;;;;;;8.77;2.20;;;;;;;34.87;25.79;97409.09;5050736;28;20133;-75
2021/06/29 11:22:47;;;;;;;5.43;2.97;;;;;;;34.79;26.15;97409.88;5032669;28;20025;-75
2021/06/29 11:25:14;;;;;;;6.05;2.75;;;;;;;34.48;26.71;97401.41;5050776;28;20033;-77
2021/06/29 11:28:05;;;;;;;9.50;2.30;;;;;;;35.30;25.81;97404.47;5050562;28;20071;-75
2021/06/29 11:31:03;;;;;;;8.18;2.72;;;;;;;35.39;25.55;97404.47;5045583;28;20041;-75
2021/06/29 11:33:30;;;;;;;7.43;3.08;;;;;;;35.11;26.24;97400.03;5050332;28;20029;-77
2021/06/29 11:35:56;;;;;;;6.25;2.15;;;;;;;35.20;26.16;97389.44;5047611;28;20037;-75
2021/06/29 11:38:31;;;;;;;7.88;2.65;;;;;;;34.76;26.64;97386.03;5046128;28;20044;-73